createdAt,value
2024-02-15T00:01:16.686Z,101264.66
2024-02-15T00:03:43.876Z,101275.72
2024-02-15T00:06:11.097Z,101268.91
2024-02-15T00:08:38.419Z,101274.00
2024-02-15T00:11:05.736Z,101267.19
2024-02-15T00:13:34.926Z,101274.84
2024-02-15T00:16:02.250Z,101259.56
2024-02-15T00:18:29.525Z,101279.09
2024-02-15T00:20:56.696Z,101274.00
2024-02-15T00:23:23.958Z,101271.47
2024-02-15T00:25:51.175Z,101274.00
2024-02-15T00:28:18.531Z,101274.88
2024-02-15T00:30:45.662Z,101262.97
2024-02-15T00:33:12.930Z,101253.66
2024-02-15T00:35:40.517Z,101251.13
2024-02-15T00:38:08.407Z,101244.34
2024-02-15T00:40:35.800Z,101251.97
2024-02-15T00:43:03.030Z,101249.44
2024-02-15T00:45:30.080Z,101258.72
2024-02-15T00:47:57.523Z,101248.56
2024-02-15T00:50:24.910Z,101241.78
2024-02-15T00:52:52.106Z,101241.75
2024-02-15T00:55:20.556Z,101241.75
2024-02-15T00:57:47.726Z,101248.56
2024-02-15T01:00:15.487Z,101240.91
2024-02-15T01:02:42.731Z,101235.84
2024-02-15T01:05:11.170Z,101237.53
2024-02-15T01:07:39.025Z,101244.28
2024-02-15T01:10:07.384Z,101241.75
2024-02-15T01:12:34.645Z,101223.09
2024-02-15T01:15:02.680Z,101248.56
2024-02-15T01:17:31.616Z,101240.91
2024-02-15T01:19:58.802Z,101241.75
2024-02-15T01:22:28.416Z,101236.66
2024-02-15T01:24:58.313Z,101249.38
2024-02-15T01:27:25.543Z,101254.47
2024-02-15T01:29:53.048Z,101253.63
2024-02-15T01:32:20.143Z,101251.94
2024-02-15T01:34:47.137Z,101257.03
2024-02-15T01:37:14.235Z,101247.72
2024-02-15T01:39:41.646Z,101257.88
2024-02-15T01:42:08.789Z,101254.47
2024-02-15T01:44:38.049Z,101255.34
2024-02-15T01:47:05.697Z,101237.53
2024-02-15T01:49:33.466Z,101246.00
2024-02-15T01:52:03.658Z,101255.34
2024-02-15T01:54:32.724Z,101260.44
2024-02-15T01:56:59.865Z,101252.78
2024-02-15T01:59:27.282Z,101246.88
2024-02-15T02:01:54.530Z,101250.25
2024-02-15T02:04:22.197Z,101251.13
2024-02-15T02:06:49.420Z,101233.31
2024-02-15T02:09:17.243Z,101238.38
2024-02-15T02:11:47.884Z,101230.75
2024-02-15T02:14:15.419Z,101255.34
2024-02-15T02:16:43.062Z,101239.22
2024-02-15T02:19:11.052Z,101254.50
2024-02-15T02:21:41.243Z,101256.19
2024-02-15T02:24:23.910Z,101248.56
2024-02-15T02:26:51.262Z,101250.25
2024-02-15T02:29:20.024Z,101257.88
2024-02-15T02:31:48.080Z,101259.59
2024-02-15T02:34:16.044Z,101248.56
2024-02-15T02:36:47.563Z,101249.41
2024-02-15T02:39:14.678Z,101254.47
2024-02-15T02:41:41.833Z,101251.09
2024-02-15T02:44:08.833Z,101244.31
2024-02-15T02:46:36.830Z,101255.31
2024-02-15T02:49:04.090Z,101262.97
2024-02-15T02:51:31.295Z,101262.97
2024-02-15T02:53:58.343Z,101263.84
2024-02-15T02:56:25.438Z,101265.50
2024-02-15T02:58:53.504Z,101277.41
2024-02-15T03:01:20.482Z,101274.00
2024-02-15T03:03:49.088Z,101258.75
2024-02-15T03:06:16.384Z,101261.28
2024-02-15T03:08:44.140Z,101265.50
2024-02-15T03:11:11.306Z,101274.84
2024-02-15T03:13:38.931Z,101266.34
2024-02-15T03:16:06.911Z,101276.53
2024-02-15T03:18:34.564Z,101279.94
2024-02-15T03:21:01.845Z,101270.59
2024-02-15T03:23:30.211Z,101284.19
2024-02-15T03:25:57.193Z,101270.59
2024-02-15T03:28:25.583Z,101287.56
2024-02-15T03:30:53.893Z,101273.16
2024-02-15T03:33:22.235Z,101284.16
2024-02-15T03:35:49.419Z,101296.91
2024-02-15T03:38:16.505Z,101268.91
2024-02-15T03:40:43.503Z,101287.56
2024-02-15T03:43:10.532Z,101272.31
2024-02-15T03:45:38.131Z,101284.19
2024-02-15T03:48:06.830Z,101289.28
2024-02-15T03:50:34.341Z,101294.38
2024-02-15T03:53:02.633Z,101284.19
2024-02-15T03:55:29.836Z,101296.06
2024-02-15T03:57:58.341Z,101293.50
2024-02-15T04:00:26.776Z,101303.66
2024-02-15T04:02:55.262Z,101311.31
2024-02-15T04:05:24.450Z,101306.22
2024-02-15T04:07:53.867Z,101301.97
2024-02-15T04:10:21.066Z,101312.97
2024-02-15T04:13:04.099Z,101311.28
2024-02-15T04:15:31.716Z,101316.34
2024-02-15T04:17:59.743Z,101308.72
2024-02-15T04:20:27.791Z,101307.88
2024-02-15T04:22:55.848Z,101305.31
2024-02-15T04:25:28.977Z,101301.94
2024-02-15T04:27:58.969Z,101293.47
2024-02-15T04:30:26.457Z,101294.31
2024-02-15T04:32:54.338Z,101303.66
2024-02-15T04:35:21.439Z,101305.34
2024-02-15T04:37:50.438Z,101301.97
2024-02-15T04:40:19.532Z,101299.44
2024-02-15T04:42:48.442Z,101301.13
2024-02-15T04:45:17.123Z,101315.50
2024-02-15T04:48:05.117Z,101307.03
2024-02-15T04:50:32.801Z,101304.50
2024-02-15T04:52:59.904Z,101305.34
2024-02-15T04:55:27.746Z,101300.25
2024-02-15T04:57:56.819Z,101306.19
2024-02-15T05:00:27.174Z,101300.22
2024-02-15T05:02:54.477Z,101311.28
2024-02-15T05:05:23.105Z,101312.13
2024-02-15T05:07:53.185Z,101317.22
2024-02-15T05:10:20.375Z,101323.13
2024-02-15T05:12:49.600Z,101332.47
2024-02-15T05:15:19.645Z,101332.50
2024-02-15T05:17:47.358Z,101341.78
2024-02-15T05:20:15.057Z,101341.81
2024-02-15T05:22:50.049Z,101349.44
2024-02-15T05:25:25.016Z,101353.69
2024-02-15T05:27:55.489Z,101362.19
2024-02-15T05:30:24.354Z,101362.19
2024-02-15T05:32:54.105Z,101368.16
2024-02-15T05:35:21.321Z,101362.19
2024-02-15T05:37:48.302Z,101375.78
2024-02-15T05:40:19.091Z,101373.22
2024-02-15T05:42:47.669Z,101374.91
2024-02-15T05:45:26.859Z,101385.94
2024-02-15T05:47:54.776Z,101382.56
2024-02-15T05:50:22.668Z,101385.94
2024-02-15T05:52:50.101Z,101385.94
2024-02-15T05:55:20.186Z,101395.28
2024-02-15T05:57:47.504Z,101396.13
2024-02-15T06:00:21.887Z,101400.38
2024-02-15T06:02:51.483Z,101390.19
2024-02-15T06:05:19.450Z,101396.13
2024-02-15T06:07:48.138Z,101396.97
2024-02-15T06:10:16.750Z,101393.59
2024-02-15T06:12:44.100Z,101400.41
2024-02-15T06:15:17.130Z,101402.13
2024-02-15T06:17:45.563Z,101388.53
2024-02-15T06:20:15.890Z,101400.41
2024-02-15T06:22:43.780Z,101402.97
2024-02-15T06:25:14.666Z,101398.72
2024-02-15T06:27:43.644Z,101396.16
2024-02-15T06:30:30.314Z,101402.09
2024-02-15T06:33:17.238Z,101403.78
2024-02-15T06:36:02.930Z,101414.84
2024-02-15T06:38:48.712Z,101411.44
2024-02-15T06:41:15.735Z,101406.34
2024-02-15T06:43:42.754Z,101406.34
2024-02-15T06:46:12.189Z,101405.50
2024-02-15T06:48:39.436Z,101409.75
2024-02-15T06:51:07.474Z,101397.03
2024-02-15T06:53:34.664Z,101407.22
2024-02-15T06:56:01.888Z,101400.44
2024-02-15T06:58:28.989Z,101414.88
2024-02-15T07:00:56.169Z,101404.69
2024-02-15T07:03:25.069Z,101404.69
2024-02-15T07:05:52.129Z,101412.34
2024-02-15T07:08:19.167Z,101410.63
2024-02-15T07:10:46.088Z,101408.09
2024-02-15T07:13:13.108Z,101414.03
2024-02-15T07:15:40.411Z,101403.84
2024-02-15T07:18:07.944Z,101398.75
2024-02-15T07:20:35.719Z,101416.56
2024-02-15T07:23:03.067Z,101408.94
2024-02-15T07:25:30.652Z,101402.94
2024-02-15T07:27:57.977Z,101403.81
2024-02-15T07:30:26.122Z,101408.03
2024-02-15T07:32:53.862Z,101400.41
2024-02-15T07:35:20.995Z,101416.50
2024-02-15T07:38:00.009Z,101422.47
2024-02-15T07:40:29.829Z,101424.97
2024-02-15T07:42:59.258Z,101439.41
2024-02-15T07:45:26.359Z,101426.66
2024-02-15T07:47:53.541Z,101430.94
2024-02-15T07:50:22.173Z,101437.72
2024-02-15T07:52:49.436Z,101440.22
2024-02-15T07:55:16.604Z,101437.66
2024-02-15T07:57:43.577Z,101431.72
2024-02-15T08:00:11.763Z,101430.00
2024-02-15T08:02:41.994Z,101439.38
2024-02-15T08:05:11.469Z,101436.81
2024-02-15T08:07:46.243Z,101438.53
2024-02-15T08:10:16.414Z,101447.88
2024-02-15T08:12:44.752Z,101436.81
2024-02-15T08:15:16.038Z,101431.69
2024-02-15T08:17:47.494Z,101450.31
2024-02-15T08:20:15.877Z,101443.44
2024-02-15T08:22:45.114Z,101438.31
2024-02-15T08:25:14.129Z,101449.34
2024-02-15T08:27:44.224Z,101447.56
2024-02-15T08:30:13.311Z,101446.66
2024-02-15T08:32:43.217Z,101445.75
2024-02-15T08:35:11.824Z,101457.66
2024-02-15T08:37:40.242Z,101450.88
2024-02-15T08:40:12.064Z,101455.13
2024-02-15T08:42:41.370Z,101458.47
2024-02-15T08:45:12.247Z,101444.03
2024-02-15T08:47:40.585Z,101457.66
2024-02-15T08:50:12.474Z,101459.41
2024-02-15T08:52:40.635Z,101454.28
2024-02-15T08:55:11.729Z,101449.22
2024-02-15T08:57:42.054Z,101450.03
2024-02-15T09:00:15.061Z,101456.88
2024-02-15T09:02:46.094Z,101449.25
2024-02-15T09:05:16.007Z,101449.31
2024-02-15T09:07:44.084Z,101448.47
2024-02-15T09:10:12.720Z,101459.53
2024-02-15T09:12:41.256Z,101446.78
2024-02-15T09:15:18.483Z,101452.75
2024-02-15T09:17:47.679Z,101451.91
2024-02-15T09:20:19.500Z,101453.63
2024-02-15T09:22:51.282Z,101457.03
2024-02-15T09:25:19.643Z,101453.59
2024-02-15T09:27:49.565Z,101461.19
2024-02-15T09:30:19.616Z,101463.69
2024-02-15T09:32:47.373Z,101463.69
2024-02-15T09:35:15.077Z,101450.13
2024-02-15T09:37:50.778Z,101453.59
2024-02-15T09:40:19.332Z,101460.41
2024-02-15T09:42:47.854Z,101463.81
2024-02-15T09:45:19.703Z,101460.44
2024-02-15T09:47:47.884Z,101464.69
2024-02-15T09:50:16.954Z,101460.38
2024-02-15T09:52:58.023Z,101451.94
2024-02-15T09:55:26.819Z,101458.72
2024-02-15T09:57:53.817Z,101465.47
2024-02-15T10:00:22.313Z,101464.63
2024-02-15T10:02:52.048Z,101459.56
2024-02-15T10:05:19.298Z,101453.63
2024-02-15T10:07:47.561Z,101464.66
2024-02-15T10:10:22.348Z,101462.06
2024-02-15T10:12:55.349Z,101462.94
2024-02-15T10:15:33.944Z,101468.88
2024-02-15T10:18:07.461Z,101462.91
2024-02-15T10:20:36.491Z,101473.09
2024-02-15T10:23:08.252Z,101474.75
2024-02-15T10:25:35.922Z,101473.84
2024-02-15T10:28:09.859Z,101464.47
2024-02-15T10:30:38.424Z,101466.94
2024-02-15T10:33:06.555Z,101477.16
2024-02-15T10:35:36.740Z,101482.25
2024-02-15T10:38:09.170Z,101476.31
2024-02-15T10:40:36.945Z,101477.16
2024-02-15T10:43:06.999Z,101481.44
2024-02-15T10:45:37.774Z,101482.22
2024-02-15T10:48:11.622Z,101474.53
2024-02-15T10:50:41.735Z,101482.22
2024-02-15T10:53:33.880Z,101479.69
2024-02-15T10:56:27.833Z,101483.09
2024-02-15T10:59:25.056Z,101473.78
2024-02-15T11:01:58.766Z,101470.38
2024-02-15T11:04:33.464Z,101475.50
2024-02-15T11:07:02.908Z,101475.50
2024-02-15T11:09:31.273Z,101472.03
2024-02-15T11:11:59.187Z,101474.56
2024-02-15T11:14:36.194Z,101474.56
2024-02-15T11:17:04.656Z,101481.41
2024-02-15T11:19:37.705Z,101478.03
2024-02-15T11:22:13.291Z,101472.06
2024-02-15T11:24:53.216Z,101482.34
2024-02-15T11:27:31.368Z,101472.16
2024-02-15T11:30:05.111Z,101472.16
2024-02-15T11:32:50.675Z,101483.16
2024-02-15T11:35:19.519Z,101484.78
2024-02-15T11:37:52.493Z,101478.78
2024-02-15T11:40:30.816Z,101468.63
2024-02-15T11:43:01.373Z,101503.44
2024-02-15T11:45:39.832Z,101492.41
2024-02-15T11:48:14.600Z,101491.59
2024-02-15T11:50:42.493Z,101497.63
2024-02-15T11:53:13.383Z,101493.44
2024-02-15T11:55:42.849Z,101489.19
2024-02-15T11:58:11.625Z,101496.03
2024-02-15T12:00:58.565Z,101496.03
2024-02-15T12:03:56.652Z,101486.72
2024-02-15T12:06:50.989Z,101504.63
2024-02-15T12:09:40.644Z,101487.66
2024-02-15T12:12:26.301Z,101508.09
2024-02-15T12:15:19.335Z,101497.88
2024-02-15T12:18:05.223Z,101491.09
2024-02-15T12:20:33.546Z,101506.34
2024-02-15T12:23:03.724Z,101502.13
2024-02-15T12:25:34.585Z,101505.53
2024-02-15T12:28:03.167Z,101508.09
2024-02-15T12:30:37.911Z,101508.06
2024-02-15T12:33:13.098Z,101499.59
2024-02-15T12:35:40.267Z,101511.50
2024-02-15T12:38:07.259Z,101508.06
2024-02-15T12:40:37.423Z,101506.34
2024-02-15T12:43:09.678Z,101508.91
2024-02-15T12:45:38.307Z,101510.59
2024-02-15T12:48:10.043Z,101505.50
2024-02-15T12:50:37.700Z,101502.94
2024-02-15T12:53:04.929Z,101504.63
2024-02-15T12:55:36.465Z,101508.03
2024-02-15T12:58:10.547Z,101513.16
2024-02-15T13:00:41.305Z,101499.59
2024-02-15T13:03:11.582Z,101518.31
2024-02-15T13:05:39.717Z,101508.09
2024-02-15T13:08:11.068Z,101510.66
2024-02-15T13:10:40.809Z,101513.22
2024-02-15T13:13:10.797Z,101509.84
2024-02-15T13:15:38.702Z,101513.25
2024-02-15T13:18:06.790Z,101515.78
2024-02-15T13:20:35.956Z,101518.34
2024-02-15T13:23:10.331Z,101520.88
2024-02-15T13:25:41.138Z,101516.63
2024-02-15T13:28:11.607Z,101526.84
2024-02-15T13:30:38.745Z,101525.16
2024-02-15T13:33:06.156Z,101520.06
2024-02-15T13:35:33.632Z,101522.63
2024-02-15T13:38:00.687Z,101524.31
2024-02-15T13:40:29.436Z,101524.31
2024-02-15T13:43:00.124Z,101526.84
2024-02-15T13:45:34.080Z,101531.09
2024-02-15T13:48:02.735Z,101530.25
2024-02-15T13:50:31.503Z,101522.56
2024-02-15T13:53:01.742Z,101527.66
2024-02-15T13:55:29.524Z,101526.78
2024-02-15T13:57:58.106Z,101530.22
2024-02-15T14:00:35.478Z,101531.06
2024-02-15T14:03:04.522Z,101525.13
2024-02-15T14:05:32.441Z,101535.31
2024-02-15T14:08:01.771Z,101537.03
2024-02-15T14:10:36.258Z,101524.28
2024-02-15T14:13:07.217Z,101531.97
2024-02-15T14:15:38.440Z,101515.84
2024-02-15T14:18:18.132Z,101534.53
2024-02-15T14:20:48.312Z,101533.66
2024-02-15T14:23:16.469Z,101531.09
2024-02-15T14:25:47.284Z,101533.66
2024-02-15T14:28:16.293Z,101531.97
2024-02-15T14:31:02.326Z,101535.38
2024-02-15T14:36:01.155Z,101540.50
2024-02-15T14:38:28.807Z,101539.66
2024-02-15T14:40:57.104Z,101538.84
2024-02-15T14:43:28.561Z,101532.03
2024-02-15T14:45:58.314Z,101533.72
2024-02-15T14:48:26.525Z,101537.13
2024-02-15T14:50:54.804Z,101534.56
2024-02-15T14:53:22.532Z,101529.47
2024-02-15T14:55:50.912Z,101538.84
2024-02-15T14:58:18.833Z,101536.28
2024-02-15T15:00:47.669Z,101540.53
2024-02-15T15:03:17.174Z,101535.41
2024-02-15T15:06:13.792Z,101539.66
2024-02-15T15:08:59.698Z,101537.94
2024-02-15T15:11:45.388Z,101543.91
2024-02-15T15:14:12.871Z,101538.81
2024-02-15T15:16:39.870Z,101537.94
2024-02-15T15:19:06.955Z,101541.38
2024-02-15T15:21:34.044Z,101545.59
2024-02-15T15:24:01.151Z,101536.25
2024-02-15T15:26:28.180Z,101542.22
2024-02-15T15:28:58.117Z,101555.81
2024-02-15T15:31:27.276Z,101549.03
2024-02-15T15:33:56.862Z,101548.16
2024-02-15T15:36:24.143Z,101554.13
2024-02-15T15:38:51.623Z,101551.59
2024-02-15T15:41:19.813Z,101536.28
2024-02-15T15:43:47.494Z,101548.16
2024-02-15T15:46:17.610Z,101552.41
2024-02-15T15:48:48.077Z,101559.22
2024-02-15T15:51:16.143Z,101561.78
2024-02-15T15:53:46.379Z,101560.06
2024-02-15T15:56:14.420Z,101562.63
2024-02-15T15:58:43.731Z,101570.28
2024-02-15T16:01:13.778Z,101570.28
2024-02-15T16:03:41.550Z,101569.44
2024-02-15T16:06:13.746Z,101576.22
2024-02-15T16:08:40.928Z,101581.31
2024-02-15T16:11:08.255Z,101580.47
2024-02-15T16:13:36.038Z,101563.47
2024-02-15T16:16:05.514Z,101586.41
2024-02-15T16:18:32.867Z,101586.41
2024-02-15T16:21:00.103Z,101591.50
2024-02-15T16:23:27.075Z,101581.31
2024-02-15T16:25:54.274Z,101579.59
2024-02-15T16:28:21.218Z,101586.41
2024-02-15T16:30:49.818Z,101596.63
2024-02-15T16:33:17.210Z,101596.63
2024-02-15T16:35:44.955Z,101597.44
2024-02-15T16:38:11.971Z,101600.88
2024-02-15T16:40:39.025Z,101594.88
2024-02-15T16:43:06.331Z,101592.31
2024-02-15T16:45:34.809Z,101593.19
2024-02-15T16:48:02.503Z,101594.03
2024-02-15T16:50:30.223Z,101597.44
2024-02-15T16:52:58.294Z,101596.59
2024-02-15T16:55:31.247Z,101588.91
2024-02-15T16:58:03.826Z,101599.97
2024-02-15T17:00:32.076Z,101605.09
2024-02-15T17:02:59.469Z,101601.69
2024-02-15T17:05:27.696Z,101602.53
2024-02-15T17:07:57.575Z,101603.41
2024-02-15T17:10:29.718Z,101594.88
2024-02-15T17:12:56.852Z,101598.31
2024-02-15T17:15:27.521Z,101602.53
2024-02-15T17:17:55.629Z,101594.88
2024-02-15T17:20:24.918Z,101607.63
2024-02-15T17:22:53.449Z,101601.69
2024-02-15T17:25:24.608Z,101595.69
2024-02-15T17:27:56.021Z,101605.06
2024-02-15T17:30:23.250Z,101599.97
2024-02-15T17:32:50.322Z,101594.88
2024-02-15T17:35:18.552Z,101589.78
2024-02-15T17:37:45.805Z,101589.81
2024-02-15T17:40:13.613Z,101590.66
2024-02-15T17:42:42.099Z,101594.06
2024-02-15T17:45:14.701Z,101595.78
2024-02-15T17:47:45.222Z,101591.50
2024-02-15T17:50:15.800Z,101589.81
2024-02-15T17:52:46.850Z,101585.56
2024-02-15T17:55:16.058Z,101597.44
2024-02-15T17:57:47.027Z,101598.31
2024-02-15T18:00:17.199Z,101599.97
2024-02-15T18:02:50.261Z,101599.16
2024-02-15T18:05:20.328Z,101596.59
2024-02-15T18:07:48.422Z,101604.25
2024-02-15T18:10:21.538Z,101599.16
2024-02-15T18:12:48.758Z,101601.72
2024-02-15T18:15:26.865Z,101605.97
2024-02-15T18:17:57.321Z,101608.53
2024-02-15T18:20:25.381Z,101601.72
2024-02-15T18:22:53.648Z,101599.19
2024-02-15T18:25:20.778Z,101603.44
2024-02-15T18:27:48.251Z,101603.44
2024-02-15T18:30:19.878Z,101605.13
2024-02-15T18:32:48.845Z,101601.72
2024-02-15T18:35:17.872Z,101600.06
2024-02-15T18:37:47.098Z,101606.00
2024-02-15T18:40:22.795Z,101605.09
2024-02-15T18:42:54.172Z,101602.56
2024-02-15T18:45:21.745Z,101600.00
2024-02-15T18:47:49.255Z,101611.94
2024-02-15T18:50:20.377Z,101613.63
2024-02-15T18:52:47.827Z,101618.75
2024-02-15T18:55:14.759Z,101611.94
2024-02-15T18:57:41.787Z,101617.03
2024-02-15T19:00:23.440Z,101621.28
2024-02-15T19:02:58.652Z,101621.28
2024-02-15T19:05:26.417Z,101601.72
2024-02-15T19:07:53.686Z,101598.31
2024-02-15T19:10:22.978Z,101598.31
2024-02-15T19:12:52.308Z,101596.59
2024-02-15T19:15:19.248Z,101599.13
2024-02-15T19:17:46.747Z,101593.19
2024-02-15T19:20:14.086Z,101598.31
2024-02-15T19:22:43.642Z,101599.16
2024-02-15T19:25:19.376Z,101606.81
2024-02-15T19:27:47.437Z,101605.97
2024-02-15T19:30:14.903Z,101600.00
2024-02-15T19:32:42.380Z,101599.16
2024-02-15T19:35:09.753Z,101611.06
2024-02-15T19:37:37.064Z,101605.09
2024-02-15T19:40:12.383Z,101611.00
2024-02-15T19:42:40.129Z,101590.59
2024-02-15T19:45:07.498Z,101594.84
2024-02-15T19:47:34.511Z,101596.56
2024-02-15T19:50:01.968Z,101599.94
2024-02-15T19:52:29.022Z,101601.66
2024-02-15T19:54:59.707Z,101574.44
2024-02-15T19:57:27.697Z,101595.66
2024-02-15T19:59:55.449Z,101599.94
2024-02-15T20:02:22.747Z,101605.03
2024-02-15T20:04:50.783Z,101605.88
2024-02-15T20:07:20.074Z,101609.31
2024-02-15T20:09:48.618Z,101599.94
2024-02-15T20:12:16.258Z,101605.88
2024-02-15T20:14:43.587Z,101600.75
2024-02-15T20:17:12.412Z,101610.97
2024-02-15T20:19:39.877Z,101593.94
2024-02-15T20:22:09.855Z,101597.34
2024-02-15T20:24:39.412Z,101599.91
2024-02-15T20:27:06.794Z,101597.38
2024-02-15T20:29:35.253Z,101601.66
2024-02-15T20:32:02.206Z,101604.22
2024-02-15T20:34:29.145Z,101606.75
2024-02-15T20:36:56.272Z,101594.84
2024-02-15T20:39:23.340Z,101603.31
2024-02-15T20:41:50.845Z,101604.13
2024-02-15T20:44:18.402Z,101602.47
2024-02-15T20:46:45.799Z,101598.19
2024-02-15T20:49:14.421Z,101600.75
2024-02-15T20:51:41.988Z,101605.03
2024-02-15T20:54:09.218Z,101603.31
2024-02-15T20:56:38.197Z,101608.41
2024-02-15T20:59:07.980Z,101603.31
2024-02-15T21:01:37.826Z,101610.13
2024-02-15T21:04:06.864Z,101610.13
2024-02-15T21:06:38.994Z,101611.81
2024-02-15T21:09:14.475Z,101611.81
2024-02-15T21:11:44.776Z,101616.91
2024-02-15T21:14:15.533Z,101622.88
2024-02-15T21:16:43.400Z,101616.91
2024-02-15T21:19:11.000Z,101620.31
2024-02-15T21:21:39.221Z,101621.16
2024-02-15T21:24:07.574Z,101622.00
2024-02-15T21:26:35.790Z,101618.59
2024-02-15T21:29:06.280Z,101615.22
2024-02-15T21:31:35.356Z,101616.88
2024-02-15T21:34:09.407Z,101616.88
2024-02-15T21:36:38.365Z,101619.44
2024-02-15T21:39:06.875Z,101612.66
2024-02-15T21:41:36.365Z,101615.19
2024-02-15T21:44:03.536Z,101605.84
2024-02-15T21:46:30.981Z,101610.94
2024-02-15T21:48:58.115Z,101623.72
2024-02-15T21:51:25.384Z,101593.94
2024-02-15T21:53:53.329Z,101599.91
2024-02-15T21:56:20.791Z,101611.81
2024-02-15T21:58:48.670Z,101608.44
2024-02-15T22:01:16.203Z,101610.13
2024-02-15T22:03:44.167Z,101612.69
2024-02-15T22:06:12.795Z,101615.25
2024-02-15T22:08:40.141Z,101611.81
2024-02-15T22:11:07.408Z,101624.56
2024-02-15T22:13:34.545Z,101618.63
2024-02-15T22:16:01.567Z,101612.66
2024-02-15T22:18:28.721Z,101612.66
2024-02-15T22:20:58.779Z,101614.34
2024-02-15T22:23:25.980Z,101619.44
2024-02-15T22:25:52.983Z,101620.31
2024-02-15T22:28:20.067Z,101620.31
2024-02-15T22:30:47.009Z,101621.13
2024-02-15T22:33:14.144Z,101620.25
2024-02-15T22:35:41.316Z,101621.16
2024-02-15T22:38:08.319Z,101620.31
2024-02-15T22:40:37.686Z,101628.81
2024-02-15T22:43:08.697Z,101629.63
2024-02-15T22:45:36.343Z,101628.78
2024-02-15T22:48:04.387Z,101636.44
2024-02-15T22:50:31.966Z,101638.97
2024-02-15T22:52:59.146Z,101642.34
2024-02-15T22:55:27.413Z,101643.16
2024-02-15T22:57:54.715Z,101644.00
2024-02-15T23:00:22.289Z,101642.34
2024-02-15T23:02:49.530Z,101640.63
2024-02-15T23:05:19.780Z,101644.91
2024-02-15T23:07:47.129Z,101645.72
2024-02-15T23:10:14.745Z,101639.75
2024-02-15T23:12:41.714Z,101637.22
2024-02-15T23:15:09.248Z,101636.34
2024-02-15T23:17:36.892Z,101633.78
2024-02-15T23:20:05.831Z,101632.94
2024-02-15T23:22:33.908Z,101629.56
2024-02-15T23:25:03.893Z,101637.22
2024-02-15T23:27:30.980Z,101627.81
2024-02-15T23:29:57.970Z,101623.56
2024-02-15T23:32:26.205Z,101622.72
2024-02-15T23:34:55.240Z,101615.91
2024-02-15T23:37:40.843Z,101619.34
2024-02-15T23:40:23.060Z,101614.25
2024-02-15T23:42:53.520Z,101611.69
2024-02-15T23:45:22.236Z,101616.81
2024-02-15T23:47:50.935Z,101616.78
2024-02-15T23:50:20.666Z,101613.41
2024-02-15T23:52:48.038Z,101615.91
2024-02-15T23:55:16.524Z,101627.00
2024-02-15T23:57:46.169Z,101613.34
